createdAt,value
2018-03-31T00:00:32.585Z,10.39
2018-03-31T00:03:00.054Z,10.33
2018-03-31T00:05:27.772Z,10.37
2018-03-31T00:07:55.278Z,10.27
2018-03-31T00:10:22.721Z,10.36
2018-03-31T00:12:51.678Z,10.39
2018-03-31T00:15:19.207Z,10.41
2018-03-31T00:17:46.692Z,10.25
2018-03-31T00:20:15.770Z,10.31
2018-03-31T00:22:43.245Z,10.27
2018-03-31T00:25:10.703Z,10.28
2018-03-31T00:27:38.744Z,10.27
2018-03-31T00:30:06.191Z,10.24
2018-03-31T00:32:33.718Z,10.17
2018-03-31T00:35:01.782Z,10.11
2018-03-31T00:37:29.248Z,10.09
2018-03-31T00:39:56.706Z,10.06
2018-03-31T00:42:24.605Z,9.98
2018-03-31T00:44:52.061Z,9.94
2018-03-31T00:47:19.608Z,9.92
2018-03-31T00:49:47.684Z,9.88
2018-03-31T00:52:15.158Z,9.90
2018-03-31T00:54:42.610Z,9.93
2018-03-31T00:57:10.691Z,9.83
2018-03-31T00:59:38.165Z,9.86
2018-03-31T01:02:05.615Z,9.89
2018-03-31T01:04:33.457Z,9.91
2018-03-31T01:07:01.246Z,9.89
2018-03-31T01:09:28.976Z,9.91
2018-03-31T01:11:56.435Z,9.88
2018-03-31T01:14:24.468Z,9.76
2018-03-31T01:16:51.920Z,9.71
2018-03-31T01:19:22.551Z,9.76
2018-03-31T01:21:49.986Z,9.70
2018-03-31T01:24:17.713Z,9.62
2018-03-31T01:26:45.184Z,9.66
2018-03-31T01:29:12.652Z,9.74
2018-03-31T01:31:40.664Z,9.75
2018-03-31T01:34:08.135Z,9.66
2018-03-31T01:36:35.616Z,9.70
2018-03-31T01:39:03.405Z,9.55
2018-03-31T01:41:30.886Z,9.54
2018-03-31T01:43:58.394Z,9.45
2018-03-31T01:46:26.176Z,9.45
2018-03-31T01:48:53.644Z,9.40
2018-03-31T01:51:21.263Z,9.41
2018-03-31T01:53:48.982Z,9.37
2018-03-31T01:56:16.440Z,9.38
2018-03-31T01:58:43.900Z,9.46
2018-03-31T02:01:11.859Z,9.50
2018-03-31T02:03:39.307Z,9.45
2018-03-31T02:06:06.762Z,9.49
2018-03-31T02:08:34.501Z,9.54
2018-03-31T02:11:02.315Z,9.49
2018-03-31T02:13:29.758Z,9.50
2018-03-31T02:15:57.875Z,9.57
2018-03-31T02:18:25.381Z,9.55
2018-03-31T02:20:52.869Z,9.54
2018-03-31T02:23:20.678Z,9.58
2018-03-31T02:25:48.230Z,9.59
2018-03-31T02:28:15.956Z,9.57
2018-03-31T02:30:43.413Z,9.57
2018-03-31T02:33:10.960Z,9.57
2018-03-31T02:35:38.503Z,9.56
2018-03-31T02:38:06.293Z,9.55
2018-03-31T02:40:34.059Z,9.54
2018-03-31T02:43:01.678Z,9.60
2018-03-31T02:45:29.181Z,9.58
2018-03-31T02:47:56.944Z,9.61
2018-03-31T02:50:24.431Z,9.54
2018-03-31T02:52:51.909Z,9.52
2018-03-31T02:55:19.689Z,9.58
2018-03-31T02:57:47.192Z,9.59
2018-03-31T03:00:14.965Z,9.63
2018-03-31T03:02:42.678Z,9.59
2018-03-31T03:05:10.167Z,9.60
2018-03-31T03:07:37.667Z,9.62
2018-03-31T03:10:05.423Z,9.63
2018-03-31T03:12:32.950Z,9.63
2018-03-31T03:15:00.736Z,9.68
2018-03-31T03:17:28.466Z,9.67
2018-03-31T03:19:55.924Z,9.61
2018-03-31T03:22:23.664Z,9.64
2018-03-31T03:24:51.405Z,9.63
2018-03-31T03:27:18.868Z,9.55
2018-03-31T03:29:46.337Z,9.55
2018-03-31T03:32:14.082Z,9.49
2018-03-31T03:34:41.570Z,9.52
2018-03-31T03:37:09.074Z,9.53
2018-03-31T03:39:36.794Z,9.56
2018-03-31T03:42:04.251Z,9.55
2018-03-31T03:44:31.712Z,9.57
2018-03-31T03:46:59.429Z,9.53
2018-03-31T03:49:26.899Z,9.41
2018-03-31T03:51:54.677Z,9.36
2018-03-31T03:54:22.157Z,9.38
2018-03-31T03:56:49.614Z,9.39
2018-03-31T03:59:17.393Z,9.41
2018-03-31T04:01:44.890Z,9.44
2018-03-31T04:04:12.408Z,9.48
2018-03-31T04:06:39.889Z,9.50
2018-03-31T04:09:07.363Z,9.52
2018-03-31T04:11:35.095Z,9.52
2018-03-31T04:14:03.751Z,9.46
2018-03-31T04:16:31.529Z,9.40
2018-03-31T04:18:59.275Z,9.38
2018-03-31T04:21:26.803Z,9.39
2018-03-31T04:23:54.285Z,9.40
2018-03-31T04:26:23.054Z,9.36
2018-03-31T04:28:50.820Z,9.36
2018-03-31T04:31:18.318Z,9.41
2018-03-31T04:33:45.781Z,9.40
2018-03-31T04:36:13.412Z,9.41
2018-03-31T04:38:41.098Z,9.45
2018-03-31T04:41:08.567Z,9.41
2018-03-31T04:43:36.340Z,9.40
2018-03-31T04:46:04.622Z,9.36
2018-03-31T04:48:32.075Z,9.34
2018-03-31T04:50:59.854Z,9.33
2018-03-31T04:53:27.432Z,9.28
2018-03-31T04:55:54.896Z,9.25
2018-03-31T04:58:22.961Z,9.24
2018-03-31T05:00:50.429Z,9.23
2018-03-31T05:03:17.963Z,9.27
2018-03-31T05:05:45.713Z,9.23
2018-03-31T05:08:13.211Z,9.22
2018-03-31T05:10:40.681Z,9.20
2018-03-31T05:13:08.500Z,9.21
2018-03-31T05:15:35.972Z,9.15
2018-03-31T05:18:04.021Z,9.17
2018-03-31T05:20:31.767Z,9.13
2018-03-31T05:22:59.229Z,9.18
2018-03-31T05:25:26.740Z,9.11
2018-03-31T05:27:54.547Z,9.07
2018-03-31T05:30:22.008Z,9.06
2018-03-31T05:32:49.513Z,9.05
2018-03-31T05:35:17.565Z,9.03
2018-03-31T05:37:44.996Z,8.97
2018-03-31T05:40:12.548Z,9.03
2018-03-31T05:42:40.581Z,9.04
2018-03-31T05:45:08.087Z,9.10
2018-03-31T05:47:35.531Z,9.14
2018-03-31T05:50:03.601Z,9.20
2018-03-31T05:52:31.123Z,9.27
2018-03-31T05:54:58.612Z,9.34
2018-03-31T05:57:26.488Z,9.40
2018-03-31T05:59:53.933Z,9.47
2018-03-31T06:02:21.486Z,9.51
2018-03-31T06:04:49.119Z,9.50
2018-03-31T06:07:16.633Z,9.54
2018-03-31T06:09:44.361Z,9.49
2018-03-31T06:12:12.137Z,9.52
2018-03-31T06:14:39.589Z,9.56
2018-03-31T06:17:07.059Z,9.58
2018-03-31T06:19:34.529Z,9.54
2018-03-31T06:22:03.031Z,9.48
2018-03-31T06:24:31.274Z,9.48
2018-03-31T06:26:58.796Z,9.56
2018-03-31T06:29:26.908Z,9.56
2018-03-31T06:31:54.413Z,9.68
2018-03-31T06:34:22.209Z,9.78
2018-03-31T06:36:49.984Z,9.82
2018-03-31T06:39:17.555Z,9.88
2018-03-31T06:41:45.093Z,9.91
2018-03-31T06:44:12.566Z,9.81
2018-03-31T06:46:40.032Z,9.79
2018-03-31T06:49:07.772Z,9.81
2018-03-31T06:51:35.725Z,9.85
2018-03-31T06:54:03.852Z,9.98
2018-03-31T06:56:31.466Z,10.13
2018-03-31T06:58:58.965Z,10.12
2018-03-31T07:01:27.478Z,10.11
2018-03-31T07:03:55.272Z,10.20
2018-03-31T07:06:23.515Z,10.28
2018-03-31T07:08:51.243Z,10.30
2018-03-31T07:11:19.134Z,10.40
2018-03-31T07:13:46.658Z,10.48
2018-03-31T07:16:14.405Z,10.55
2018-03-31T07:18:42.078Z,10.54
2018-03-31T07:21:09.667Z,10.62
2018-03-31T07:23:37.163Z,10.75
2018-03-31T07:26:04.654Z,10.76
2018-03-31T07:28:34.503Z,10.76
2018-03-31T07:31:02.283Z,10.70
2018-03-31T07:33:29.756Z,10.73
2018-03-31T07:35:57.237Z,10.80
2018-03-31T07:38:25.015Z,10.85
2018-03-31T07:40:52.913Z,10.96
2018-03-31T07:43:20.550Z,11.05
2018-03-31T07:45:48.037Z,11.20
2018-03-31T07:48:15.808Z,11.43
2018-03-31T07:50:53.973Z,11.53
2018-03-31T07:53:21.871Z,11.70
2018-03-31T07:55:49.338Z,11.88
2018-03-31T07:58:17.103Z,12.07
2018-03-31T08:00:44.842Z,12.23
2018-03-31T08:03:12.302Z,12.24
2018-03-31T08:05:40.079Z,12.31
2018-03-31T08:08:07.794Z,12.44
2018-03-31T08:10:36.586Z,12.67
2018-03-31T08:13:04.085Z,12.80
2018-03-31T08:15:31.593Z,12.95
2018-03-31T08:17:59.073Z,13.17
2018-03-31T08:20:28.013Z,13.40
2018-03-31T08:22:55.495Z,13.61
2018-03-31T08:25:22.965Z,13.74
2018-03-31T08:27:50.462Z,14.05
2018-03-31T08:30:18.062Z,14.26
2018-03-31T08:32:45.858Z,14.37
2018-03-31T08:35:13.662Z,14.67
2018-03-31T08:37:41.101Z,14.89
2018-03-31T08:40:08.829Z,14.94
2018-03-31T08:42:36.746Z,15.15
2018-03-31T08:45:04.203Z,15.14
2018-03-31T08:47:31.978Z,15.17
2018-03-31T08:49:59.488Z,15.37
2018-03-31T08:52:27.432Z,15.55
2018-03-31T08:54:55.145Z,15.69
2018-03-31T08:57:23.415Z,15.83
2018-03-31T08:59:50.967Z,15.95
2018-03-31T09:02:19.741Z,15.93
2018-03-31T09:04:47.372Z,15.84
2018-03-31T09:07:14.834Z,15.85
2018-03-31T09:09:42.309Z,16.11
2018-03-31T09:12:10.074Z,16.04
2018-03-31T09:14:38.825Z,16.36
2018-03-31T09:17:06.288Z,16.42
2018-03-31T09:19:33.747Z,16.51
2018-03-31T09:22:01.736Z,16.63
2018-03-31T09:24:29.229Z,16.54
2018-03-31T09:26:57.029Z,16.65
2018-03-31T09:29:25.535Z,16.48
2018-03-31T09:31:53.012Z,16.63
2018-03-31T09:34:20.690Z,16.99
2018-03-31T09:36:48.423Z,17.19
2018-03-31T09:39:15.914Z,17.33
2018-03-31T09:41:43.566Z,17.30
2018-03-31T09:44:13.343Z,17.40
2018-03-31T09:46:40.895Z,17.79
2018-03-31T09:49:08.612Z,17.22
2018-03-31T09:51:36.332Z,17.37
2018-03-31T09:54:04.619Z,17.75
2018-03-31T09:56:32.119Z,17.97
2018-03-31T09:58:59.626Z,18.32
2018-03-31T10:01:27.096Z,18.69
2018-03-31T10:03:54.879Z,18.79
2018-03-31T10:06:22.357Z,18.83
2018-03-31T10:08:49.990Z,18.20
2018-03-31T10:11:17.768Z,18.64
2018-03-31T10:13:45.236Z,18.72
2018-03-31T10:16:12.722Z,19.14
2018-03-31T10:18:40.487Z,19.36
2018-03-31T10:21:07.986Z,19.60
2018-03-31T10:23:35.487Z,19.71
2018-03-31T10:26:03.916Z,19.86
2018-03-31T10:28:31.439Z,20.66
2018-03-31T10:30:59.161Z,20.44
2018-03-31T10:33:26.953Z,20.66
2018-03-31T10:35:54.490Z,21.08
2018-03-31T10:38:22.020Z,21.40
2018-03-31T10:40:49.827Z,21.23
2018-03-31T10:43:17.564Z,21.06
2018-03-31T10:45:45.057Z,20.97
2018-03-31T10:48:12.536Z,20.95
2018-03-31T10:50:40.286Z,20.27
2018-03-31T10:53:07.776Z,20.09
2018-03-31T10:55:35.519Z,19.97
2018-03-31T10:58:04.507Z,20.16
2018-03-31T11:00:31.982Z,20.59
2018-03-31T11:02:59.472Z,20.84
2018-03-31T11:05:27.021Z,21.12
2018-03-31T11:07:54.488Z,21.47
2018-03-31T11:10:23.360Z,22.05
2018-03-31T11:12:50.884Z,22.54
2018-03-31T11:15:18.312Z,22.88
2018-03-31T11:17:45.888Z,22.51
2018-03-31T11:20:13.397Z,22.72
2018-03-31T11:22:42.155Z,22.95
2018-03-31T11:25:09.674Z,23.67
2018-03-31T11:27:37.166Z,23.67
2018-03-31T11:30:04.930Z,23.29
2018-03-31T11:32:32.392Z,22.10
2018-03-31T11:34:59.844Z,22.00
2018-03-31T11:37:27.772Z,21.83
2018-03-31T11:39:55.263Z,22.06
2018-03-31T11:42:22.823Z,22.69
2018-03-31T11:44:50.596Z,22.55
2018-03-31T11:47:18.103Z,22.56
2018-03-31T11:49:45.610Z,22.96
2018-03-31T11:52:13.476Z,23.55
2018-03-31T11:54:41.770Z,24.01
2018-03-31T11:57:09.294Z,23.82
2018-03-31T11:59:37.186Z,23.46
2018-03-31T12:02:05.025Z,23.45
2018-03-31T12:04:32.510Z,23.99
2018-03-31T12:07:00.367Z,24.43
2018-03-31T12:09:27.888Z,24.65
2018-03-31T12:11:55.375Z,24.59
2018-03-31T12:14:23.180Z,24.08
2018-03-31T12:16:50.773Z,23.50
2018-03-31T12:19:18.213Z,23.56
2018-03-31T12:21:45.997Z,23.93
2018-03-31T12:26:47.755Z,24.07
2018-03-31T12:29:15.725Z,23.88
2018-03-31T12:31:43.367Z,23.38
2018-03-31T12:34:10.981Z,23.11
2018-03-31T12:36:38.824Z,23.55
2018-03-31T12:39:06.345Z,24.17
2018-03-31T12:41:34.121Z,24.31
2018-03-31T12:44:03.711Z,24.36
2018-03-31T12:46:31.598Z,24.83
2018-03-31T12:48:59.146Z,25.56
2018-03-31T12:51:26.691Z,25.82
2018-03-31T12:53:54.593Z,25.83
2018-03-31T12:56:22.189Z,25.87
2018-03-31T12:58:49.732Z,26.21
2018-03-31T13:04:00.545Z,26.64
2018-03-31T13:06:28.015Z,26.70
2018-03-31T13:08:56.950Z,26.31
2018-03-31T13:11:25.430Z,26.05
2018-03-31T13:13:53.876Z,26.14
2018-03-31T13:16:22.613Z,25.94
2018-03-31T13:18:51.036Z,25.99
2018-03-31T13:21:19.506Z,25.32
2018-03-31T13:23:48.248Z,24.11
2018-03-31T13:26:16.967Z,24.34
2018-03-31T13:28:45.991Z,25.08
2018-03-31T13:31:14.811Z,25.45
2018-03-31T13:33:42.492Z,26.17
2018-03-31T13:36:09.981Z,26.26
2018-03-31T13:38:37.743Z,26.54
2018-03-31T13:41:05.283Z,26.94
2018-03-31T13:43:33.467Z,27.05
2018-03-31T13:46:01.320Z,27.07
2018-03-31T13:48:28.904Z,26.48
2018-03-31T13:50:56.401Z,26.90
2018-03-31T13:53:24.331Z,27.01
2018-03-31T13:55:51.844Z,26.34
2018-03-31T13:58:19.390Z,26.38
2018-03-31T14:00:47.518Z,26.43
2018-03-31T14:05:45.676Z,26.75
2018-03-31T14:08:13.548Z,26.15
2018-03-31T14:10:41.054Z,25.94
2018-03-31T14:13:08.583Z,25.92
2018-03-31T14:15:36.350Z,25.61
2018-03-31T14:18:04.561Z,25.13
2018-03-31T14:20:32.472Z,24.97
2018-03-31T14:23:00.297Z,23.75
2018-03-31T14:25:27.835Z,22.81
2018-03-31T14:27:55.474Z,22.46
2018-03-31T14:30:23.431Z,21.84
2018-03-31T14:32:50.895Z,21.52
2018-03-31T14:35:18.467Z,21.43
2018-03-31T14:37:46.415Z,21.37
2018-03-31T14:40:13.930Z,21.54
2018-03-31T14:42:41.439Z,21.77
2018-03-31T14:45:09.298Z,21.57
2018-03-31T14:47:36.883Z,21.31
2018-03-31T14:50:04.731Z,20.97
2018-03-31T14:52:32.521Z,20.83
2018-03-31T14:55:00.033Z,20.73
2018-03-31T14:57:27.555Z,20.69
2018-03-31T14:59:55.176Z,20.61
2018-03-31T15:02:22.869Z,20.54
2018-03-31T15:04:50.769Z,20.45
2018-03-31T15:07:18.302Z,20.26
2018-03-31T15:09:45.841Z,20.11
2018-03-31T15:12:13.981Z,19.99
2018-03-31T15:14:42.383Z,19.84
2018-03-31T15:17:09.906Z,19.66
2018-03-31T15:19:38.071Z,19.47
2018-03-31T15:22:05.601Z,19.38
2018-03-31T15:24:33.651Z,19.45
2018-03-31T15:27:01.971Z,19.42
2018-03-31T15:29:29.469Z,19.53
2018-03-31T15:31:56.955Z,19.80
2018-03-31T15:34:24.836Z,20.16
2018-03-31T15:36:52.348Z,20.38
2018-03-31T15:39:19.847Z,20.41
2018-03-31T15:41:48.865Z,20.54
2018-03-31T15:44:16.381Z,20.41
2018-03-31T15:46:44.110Z,20.50
2018-03-31T15:49:11.822Z,20.63
2018-03-31T15:51:39.310Z,20.56
2018-03-31T15:54:07.162Z,20.64
2018-03-31T15:56:34.710Z,20.47
2018-03-31T15:59:02.776Z,20.35
2018-03-31T16:01:30.528Z,19.86
2018-03-31T16:03:58.363Z,19.88
2018-03-31T16:06:25.834Z,20.24
2018-03-31T16:08:55.612Z,20.26
2018-03-31T16:11:23.465Z,20.08
2018-03-31T16:13:50.959Z,19.90
2018-03-31T16:16:18.428Z,19.91
2018-03-31T16:18:45.906Z,19.97
2018-03-31T16:21:13.377Z,20.18
2018-03-31T16:23:41.152Z,20.04
2018-03-31T16:26:08.921Z,19.97
2018-03-31T16:28:36.398Z,19.85
2018-03-31T16:31:04.329Z,19.81
2018-03-31T16:33:31.847Z,19.56
2018-03-31T16:35:59.325Z,19.30
2018-03-31T16:38:26.841Z,19.06
2018-03-31T16:40:54.469Z,18.91
2018-03-31T16:43:22.432Z,18.77
2018-03-31T16:45:49.887Z,18.60
2018-03-31T16:48:17.377Z,18.53
2018-03-31T16:50:45.148Z,18.41
2018-03-31T16:53:12.691Z,18.22
2018-03-31T16:55:40.731Z,18.23
2018-03-31T16:58:09.515Z,18.21
2018-03-31T17:00:37.595Z,18.06
2018-03-31T17:03:05.239Z,17.77
2018-03-31T17:05:34.552Z,17.50
2018-03-31T17:08:03.916Z,17.38
2018-03-31T17:10:31.766Z,17.30
2018-03-31T17:12:59.623Z,17.31
2018-03-31T17:15:27.235Z,17.22
2018-03-31T17:17:54.721Z,17.19
2018-03-31T17:20:22.317Z,17.13
2018-03-31T17:22:49.812Z,17.09
2018-03-31T17:25:17.595Z,16.94
2018-03-31T17:27:45.127Z,16.81
2018-03-31T17:30:12.612Z,16.63
2018-03-31T17:32:42.635Z,16.66
2018-03-31T17:35:10.125Z,16.66
2018-03-31T17:37:37.609Z,16.48
2018-03-31T17:40:05.669Z,16.48
2018-03-31T17:42:33.123Z,16.51
2018-03-31T17:45:00.756Z,16.40
2018-03-31T17:47:28.549Z,16.40
2018-03-31T17:49:56.080Z,16.43
2018-03-31T17:52:24.268Z,16.44
2018-03-31T17:54:52.403Z,16.44
2018-03-31T17:57:19.994Z,16.44
2018-03-31T17:59:47.471Z,16.38
2018-03-31T18:02:14.998Z,16.20
2018-03-31T18:04:42.500Z,16.15
2018-03-31T18:07:12.378Z,16.13
2018-03-31T18:09:40.009Z,16.13
2018-03-31T18:12:07.507Z,15.97
2018-03-31T18:14:35.239Z,15.68
2018-03-31T18:17:02.895Z,15.64
2018-03-31T18:19:30.349Z,15.43
2018-03-31T18:21:58.098Z,15.43
2018-03-31T18:24:25.608Z,15.31
2018-03-31T18:26:53.081Z,15.23
2018-03-31T18:29:21.017Z,15.15
2018-03-31T18:31:48.534Z,15.04
2018-03-31T18:34:16.014Z,14.98
2018-03-31T18:36:43.563Z,14.90
2018-03-31T18:39:11.432Z,14.87
2018-03-31T18:41:38.974Z,14.88
2018-03-31T18:44:06.426Z,14.79
2018-03-31T18:46:35.790Z,14.74
2018-03-31T18:49:03.368Z,14.70
2018-03-31T18:51:31.084Z,14.70
2018-03-31T18:53:58.608Z,14.60
2018-03-31T18:56:26.113Z,14.55
2018-03-31T18:58:53.625Z,14.51
2018-03-31T19:01:21.180Z,14.54
2018-03-31T19:03:49.010Z,14.47
2018-03-31T19:06:16.488Z,14.45
2018-03-31T19:08:44.146Z,14.44
2018-03-31T19:11:11.958Z,14.48
2018-03-31T19:13:39.445Z,14.49
2018-03-31T19:16:07.198Z,14.45
2018-03-31T19:18:34.889Z,14.43
2018-03-31T19:21:02.553Z,14.40
2018-03-31T19:23:30.441Z,14.33
2018-03-31T19:25:59.236Z,14.21
2018-03-31T19:28:26.946Z,14.15
2018-03-31T19:30:54.996Z,14.00
2018-03-31T19:33:22.932Z,13.88
2018-03-31T19:35:54.472Z,13.96
2018-03-31T19:38:21.962Z,13.86
2018-03-31T19:40:49.430Z,13.88
2018-03-31T19:43:17.283Z,13.98
2018-03-31T19:45:45.362Z,13.99
2018-03-31T19:48:12.867Z,14.02
2018-03-31T19:50:40.378Z,13.97
2018-03-31T19:53:08.156Z,13.99
2018-03-31T19:55:35.736Z,13.97
2018-03-31T20:00:31.974Z,13.95
2018-03-31T20:02:59.428Z,13.83
2018-03-31T20:05:26.902Z,13.82
2018-03-31T20:07:54.950Z,13.83
2018-03-31T20:10:22.442Z,13.83
2018-03-31T20:12:50.202Z,13.85
2018-03-31T20:15:20.055Z,13.84
2018-03-31T20:17:47.515Z,13.78
2018-03-31T20:20:14.970Z,13.70
2018-03-31T20:22:43.046Z,13.71
2018-03-31T20:25:10.533Z,13.65
2018-03-31T20:27:39.028Z,13.59
2018-03-31T20:30:07.055Z,13.55
2018-03-31T20:32:35.518Z,13.54
2018-03-31T20:35:03.815Z,13.43
2018-03-31T20:37:31.321Z,13.39
2018-03-31T20:39:58.838Z,13.37
2018-03-31T20:42:27.765Z,13.33
2018-03-31T20:44:55.628Z,13.31
2018-03-31T20:47:23.146Z,13.28
2018-03-31T20:49:51.127Z,13.22
2018-03-31T20:52:18.774Z,13.18
2018-03-31T20:54:46.261Z,13.17
2018-03-31T20:57:13.995Z,13.16
2018-03-31T20:59:42.495Z,13.09
2018-03-31T21:02:09.975Z,13.09
2018-03-31T21:04:37.458Z,13.05
2018-03-31T21:07:04.964Z,12.98
2018-03-31T21:09:32.947Z,12.98
2018-03-31T21:12:00.456Z,12.99
2018-03-31T21:14:28.156Z,12.96
2018-03-31T21:16:55.628Z,12.90
2018-03-31T21:19:23.174Z,12.86
2018-03-31T21:21:50.929Z,12.79
2018-03-31T21:24:18.416Z,12.81
2018-03-31T21:26:47.166Z,12.88
2018-03-31T21:29:15.279Z,12.92
2018-03-31T21:31:42.773Z,12.92
2018-03-31T21:34:10.272Z,12.95
2018-03-31T21:36:38.009Z,12.99
2018-03-31T21:39:05.494Z,13.06
2018-03-31T21:41:33.820Z,13.06
2018-03-31T21:44:02.776Z,13.06
2018-03-31T21:46:30.266Z,13.04
2018-03-31T21:48:57.763Z,13.02
2018-03-31T21:51:27.267Z,13.02
2018-03-31T21:53:54.727Z,13.02
2018-03-31T21:56:22.297Z,13.01
2018-03-31T21:58:50.251Z,12.98
2018-03-31T22:01:18.572Z,12.95
2018-03-31T22:03:46.086Z,12.99
2018-03-31T22:09:11.680Z,12.94
2018-03-31T22:11:39.753Z,12.97
2018-03-31T22:16:42.062Z,12.97
2018-03-31T22:19:09.579Z,12.93
2018-03-31T22:21:37.065Z,12.96
2018-03-31T22:24:04.830Z,12.90
2018-03-31T22:26:32.357Z,12.85
2018-03-31T22:29:00.365Z,12.82
2018-03-31T22:31:28.455Z,12.79
2018-03-31T22:33:55.936Z,12.72
2018-03-31T22:36:23.458Z,12.68
2018-03-31T22:38:51.052Z,12.63
2018-03-31T22:41:19.602Z,12.62
2018-03-31T22:43:47.353Z,12.62
2018-03-31T22:46:15.224Z,12.68
2018-03-31T22:48:42.700Z,12.76
2018-03-31T22:51:10.167Z,12.82
2018-03-31T22:53:37.662Z,12.85
2018-03-31T22:56:05.565Z,12.84
2018-03-31T22:58:33.134Z,12.81
2018-03-31T23:01:01.751Z,12.80
2018-03-31T23:03:29.268Z,12.77
2018-03-31T23:05:57.081Z,12.76
2018-03-31T23:08:25.292Z,12.78
2018-03-31T23:10:52.783Z,12.81
2018-03-31T23:13:21.096Z,12.79
2018-03-31T23:15:49.074Z,12.78
2018-03-31T23:18:16.586Z,12.75
2018-03-31T23:20:46.091Z,12.77
2018-03-31T23:23:14.149Z,12.74
2018-03-31T23:25:41.771Z,12.68
2018-03-31T23:28:09.286Z,12.59
2018-03-31T23:30:37.133Z,12.60
2018-03-31T23:33:04.629Z,12.60
2018-03-31T23:35:32.998Z,12.64
2018-03-31T23:38:01.063Z,12.57
2018-03-31T23:40:28.523Z,12.52
2018-03-31T23:42:55.998Z,12.56
2018-03-31T23:45:24.040Z,12.54
2018-03-31T23:47:51.630Z,12.51
2018-03-31T23:50:19.120Z,12.50
2018-03-31T23:52:46.994Z,12.46
2018-03-31T23:55:14.453Z,12.44
2018-03-31T23:57:41.883Z,12.46
